sensor_id;sensor_type;location;lat;lon;timestamp;pressure;altitude;pressure_sealevel;temperature
44429;BMP180;30134;47.866;-4.222;2022-10-26T00:03:36;100733.00;;;24.90
44429;BMP180;30134;47.866;-4.222;2022-10-26T00:06:13;100735.00;;;24.90
44429;BMP180;30134;47.866;-4.222;2022-10-26T00:08:40;100741.00;;;24.90
44429;BMP180;30134;47.866;-4.222;2022-10-26T00:11:07;100738.00;;;24.80
44429;BMP180;30134;47.866;-4.222;2022-10-26T00:13:34;100737.00;;;24.80
44429;BMP180;30134;47.866;-4.222;2022-10-26T00:16:01;100741.00;;;24.80
44429;BMP180;30134;47.866;-4.222;2022-10-26T00:18:31;100746.00;;;24.80
44429;BMP180;30134;47.866;-4.222;2022-10-26T00:21:03;100750.00;;;24.80
44429;BMP180;30134;47.866;-4.222;2022-10-26T00:23:29;100746.00;;;24.80
44429;BMP180;30134;47.866;-4.222;2022-10-26T00:25:56;100750.00;;;24.80
44429;BMP180;30134;47.866;-4.222;2022-10-26T00:28:22;100748.00;;;24.80
44429;BMP180;30134;47.866;-4.222;2022-10-26T00:30:51;100751.00;;;24.80
44429;BMP180;30134;47.866;-4.222;2022-10-26T00:33:17;100758.00;;;24.80
44429;BMP180;30134;47.866;-4.222;2022-10-26T00:35:46;100758.00;;;24.80
44429;BMP180;30134;47.866;-4.222;2022-10-26T00:38:12;100758.00;;;24.70
44429;BMP180;30134;47.866;-4.222;2022-10-26T00:40:38;100761.00;;;24.70
44429;BMP180;30134;47.866;-4.222;2022-10-26T00:43:13;100760.00;;;24.70
44429;BMP180;30134;47.866;-4.222;2022-10-26T00:45:41;100768.00;;;24.70
44429;BMP180;30134;47.866;-4.222;2022-10-26T00:48:21;100767.00;;;24.70
44429;BMP180;30134;47.866;-4.222;2022-10-26T00:50:49;100773.00;;;24.70
44429;BMP180;30134;47.866;-4.222;2022-10-26T00:53:19;100766.00;;;24.70
44429;BMP180;30134;47.866;-4.222;2022-10-26T00:55:49;100765.00;;;24.70
44429;BMP180;30134;47.866;-4.222;2022-10-26T00:58:16;100766.00;;;24.70
44429;BMP180;30134;47.866;-4.222;2022-10-26T01:00:45;100767.00;;;24.70
44429;BMP180;30134;47.866;-4.222;2022-10-26T01:03:13;100771.00;;;24.70
44429;BMP180;30134;47.866;-4.222;2022-10-26T01:05:41;100763.00;;;24.70
44429;BMP180;30134;47.866;-4.222;2022-10-26T01:08:09;100766.00;;;24.70
44429;BMP180;30134;47.866;-4.222;2022-10-26T01:10:37;100776.00;;;24.70
44429;BMP180;30134;47.866;-4.222;2022-10-26T01:13:05;100770.00;;;24.60
44429;BMP180;30134;47.866;-4.222;2022-10-26T01:16:09;100776.00;;;24.60
44429;BMP180;30134;47.866;-4.222;2022-10-26T01:19:04;100781.00;;;24.60
44429;BMP180;30134;47.866;-4.222;2022-10-26T01:22:13;100771.00;;;24.60
44429;BMP180;30134;47.866;-4.222;2022-10-26T01:27:43;100776.00;;;24.60
44429;BMP180;30134;47.866;-4.222;2022-10-26T01:30:20;100774.00;;;24.60
44429;BMP180;30134;47.866;-4.222;2022-10-26T01:44:33;100780.00;;;24.50
44429;BMP180;30134;47.866;-4.222;2022-10-26T01:47:07;100788.00;;;24.50
44429;BMP180;30134;47.866;-4.222;2022-10-26T01:49:38;100783.00;;;24.50
44429;BMP180;30134;47.866;-4.222;2022-10-26T01:52:05;100787.00;;;24.50
44429;BMP180;30134;47.866;-4.222;2022-10-26T01:54:35;100774.00;;;24.50
44429;BMP180;30134;47.866;-4.222;2022-10-26T01:57:05;100800.00;;;24.50
44429;BMP180;30134;47.866;-4.222;2022-10-26T02:05:32;100789.00;;;24.50
44429;BMP180;30134;47.866;-4.222;2022-10-26T02:11:30;100785.00;;;24.50
44429;BMP180;30134;47.866;-4.222;2022-10-26T02:17:04;100786.00;;;24.50
44429;BMP180;30134;47.866;-4.222;2022-10-26T02:19:42;100784.00;;;24.50
44429;BMP180;30134;47.866;-4.222;2022-10-26T02:22:22;100785.00;;;24.40
44429;BMP180;30134;47.866;-4.222;2022-10-26T02:24:52;100790.00;;;24.40
44429;BMP180;30134;47.866;-4.222;2022-10-26T02:27:26;100790.00;;;24.40
44429;BMP180;30134;47.866;-4.222;2022-10-26T02:29:54;100794.00;;;24.40
44429;BMP180;30134;47.866;-4.222;2022-10-26T02:32:27;100789.00;;;24.40
44429;BMP180;30134;47.866;-4.222;2022-10-26T02:34:56;100790.00;;;24.40
44429;BMP180;30134;47.866;-4.222;2022-10-26T02:37:25;100790.00;;;24.40
44429;BMP180;30134;47.866;-4.222;2022-10-26T02:39:53;100796.00;;;24.40
44429;BMP180;30134;47.866;-4.222;2022-10-26T02:42:20;100795.00;;;24.40
44429;BMP180;30134;47.866;-4.222;2022-10-26T02:44:54;100796.00;;;24.40
44429;BMP180;30134;47.866;-4.222;2022-10-26T02:47:23;100792.00;;;24.40
44429;BMP180;30134;47.866;-4.222;2022-10-26T02:49:51;100786.00;;;24.40
44429;BMP180;30134;47.866;-4.222;2022-10-26T02:52:40;100793.00;;;24.40
44429;BMP180;30134;47.866;-4.222;2022-10-26T02:55:21;100801.00;;;24.40
44429;BMP180;30134;47.866;-4.222;2022-10-26T02:57:53;100800.00;;;24.40
44429;BMP180;30134;47.866;-4.222;2022-10-26T03:00:21;100800.00;;;24.40
44429;BMP180;30134;47.866;-4.222;2022-10-26T03:02:56;100791.00;;;24.40
44429;BMP180;30134;47.866;-4.222;2022-10-26T03:05:26;100798.00;;;24.30
44429;BMP180;30134;47.866;-4.222;2022-10-26T03:07:53;100799.00;;;24.30
44429;BMP180;30134;47.866;-4.222;2022-10-26T03:10:20;100801.00;;;24.30
44429;BMP180;30134;47.866;-4.222;2022-10-26T03:12:48;100799.00;;;24.30
44429;BMP180;30134;47.866;-4.222;2022-10-26T03:15:15;100807.00;;;24.30
44429;BMP180;30134;47.866;-4.222;2022-10-26T03:17:41;100804.00;;;24.30
44429;BMP180;30134;47.866;-4.222;2022-10-26T03:20:08;100815.00;;;24.30
44429;BMP180;30134;47.866;-4.222;2022-10-26T03:22:34;100812.00;;;24.30
44429;BMP180;30134;47.866;-4.222;2022-10-26T03:25:00;100815.00;;;24.30
44429;BMP180;30134;47.866;-4.222;2022-10-26T03:27:26;100812.00;;;24.30
44429;BMP180;30134;47.866;-4.222;2022-10-26T03:29:52;100807.00;;;24.30
44429;BMP180;30134;47.866;-4.222;2022-10-26T03:32:19;100813.00;;;24.30
44429;BMP180;30134;47.866;-4.222;2022-10-26T03:34:45;100817.00;;;24.30
44429;BMP180;30134;47.866;-4.222;2022-10-26T03:37:12;100825.00;;;24.30
44429;BMP180;30134;47.866;-4.222;2022-10-26T03:39:38;100812.00;;;24.30
44429;BMP180;30134;47.866;-4.222;2022-10-26T03:42:03;100817.00;;;24.30
44429;BMP180;30134;47.866;-4.222;2022-10-26T03:44:29;100811.00;;;24.30
44429;BMP180;30134;47.866;-4.222;2022-10-26T03:46:55;100805.00;;;24.30
44429;BMP180;30134;47.866;-4.222;2022-10-26T03:49:21;100820.00;;;24.30
44429;BMP180;30134;47.866;-4.222;2022-10-26T03:51:47;100817.00;;;24.30
44429;BMP180;30134;47.866;-4.222;2022-10-26T03:54:13;100823.00;;;24.30
44429;BMP180;30134;47.866;-4.222;2022-10-26T03:56:39;100816.00;;;24.20
44429;BMP180;30134;47.866;-4.222;2022-10-26T03:59:05;100825.00;;;24.20
44429;BMP180;30134;47.866;-4.222;2022-10-26T04:01:31;100839.00;;;24.20
44429;BMP180;30134;47.866;-4.222;2022-10-26T04:03:57;100832.00;;;24.20
44429;BMP180;30134;47.866;-4.222;2022-10-26T04:06:26;100838.00;;;24.20
44429;BMP180;30134;47.866;-4.222;2022-10-26T04:08:52;100843.00;;;24.20
44429;BMP180;30134;47.866;-4.222;2022-10-26T04:11:22;100827.00;;;24.20
44429;BMP180;30134;47.866;-4.222;2022-10-26T04:13:48;100831.00;;;24.20
44429;BMP180;30134;47.866;-4.222;2022-10-26T04:16:14;100825.00;;;24.20
44429;BMP180;30134;47.866;-4.222;2022-10-26T04:18:40;100824.00;;;24.20
44429;BMP180;30134;47.866;-4.222;2022-10-26T04:21:06;100827.00;;;24.20
44429;BMP180;30134;47.866;-4.222;2022-10-26T04:23:32;100826.00;;;24.20
44429;BMP180;30134;47.866;-4.222;2022-10-26T04:25:57;100834.00;;;24.20
44429;BMP180;30134;47.866;-4.222;2022-10-26T04:28:23;100838.00;;;24.20
44429;BMP180;30134;47.866;-4.222;2022-10-26T04:30:49;100845.00;;;24.20
44429;BMP180;30134;47.866;-4.222;2022-10-26T04:33:15;100851.00;;;24.20
44429;BMP180;30134;47.866;-4.222;2022-10-26T04:35:41;100845.00;;;24.20
44429;BMP180;30134;47.866;-4.222;2022-10-26T04:38:09;100847.00;;;24.20
44429;BMP180;30134;47.866;-4.222;2022-10-26T04:40:35;100839.00;;;24.10
44429;BMP180;30134;47.866;-4.222;2022-10-26T04:43:01;100839.00;;;24.20
44429;BMP180;30134;47.866;-4.222;2022-10-26T04:45:27;100849.00;;;24.10
44429;BMP180;30134;47.866;-4.222;2022-10-26T04:48:07;100857.00;;;24.10
44429;BMP180;30134;47.866;-4.222;2022-10-26T04:50:33;100863.00;;;24.10
44429;BMP180;30134;47.866;-4.222;2022-10-26T04:53:00;100868.00;;;24.10
44429;BMP180;30134;47.866;-4.222;2022-10-26T04:55:26;100860.00;;;24.10
44429;BMP180;30134;47.866;-4.222;2022-10-26T04:57:52;100868.00;;;24.10
44429;BMP180;30134;47.866;-4.222;2022-10-26T05:00:18;100861.00;;;24.10
44429;BMP180;30134;47.866;-4.222;2022-10-26T05:02:44;100862.00;;;24.10
44429;BMP180;30134;47.866;-4.222;2022-10-26T05:05:10;100872.00;;;24.10
44429;BMP180;30134;47.866;-4.222;2022-10-26T05:07:36;100876.00;;;24.10
44429;BMP180;30134;47.866;-4.222;2022-10-26T05:10:03;100884.00;;;24.10
44429;BMP180;30134;47.866;-4.222;2022-10-26T05:12:29;100885.00;;;24.10
44429;BMP180;30134;47.866;-4.222;2022-10-26T05:14:55;100910.00;;;24.10
44429;BMP180;30134;47.866;-4.222;2022-10-26T05:17:26;100921.00;;;24.10
44429;BMP180;30134;47.866;-4.222;2022-10-26T05:19:53;100916.00;;;24.10
44429;BMP180;30134;47.866;-4.222;2022-10-26T05:22:24;100914.00;;;24.10
44429;BMP180;30134;47.866;-4.222;2022-10-26T05:24:50;100909.00;;;24.10
44429;BMP180;30134;47.866;-4.222;2022-10-26T05:27:16;100921.00;;;24.10
44429;BMP180;30134;47.866;-4.222;2022-10-26T05:29:42;100927.00;;;24.10
44429;BMP180;30134;47.866;-4.222;2022-10-26T05:32:08;100916.00;;;24.10
44429;BMP180;30134;47.866;-4.222;2022-10-26T05:34:34;100936.00;;;24.10
44429;BMP180;30134;47.866;-4.222;2022-10-26T05:37:00;100938.00;;;24.10
44429;BMP180;30134;47.866;-4.222;2022-10-26T05:39:29;100928.00;;;24.10
44429;BMP180;30134;47.866;-4.222;2022-10-26T05:41:55;100942.00;;;24.00
44429;BMP180;30134;47.866;-4.222;2022-10-26T05:44:21;100952.00;;;24.10
44429;BMP180;30134;47.866;-4.222;2022-10-26T05:46:46;100953.00;;;24.00
44429;BMP180;30134;47.866;-4.222;2022-10-26T05:49:12;100969.00;;;24.00
44429;BMP180;30134;47.866;-4.222;2022-10-26T05:51:40;100984.00;;;24.00
44429;BMP180;30134;47.866;-4.222;2022-10-26T05:54:06;100977.00;;;24.00
44429;BMP180;30134;47.866;-4.222;2022-10-26T05:56:39;100975.00;;;24.00
44429;BMP180;30134;47.866;-4.222;2022-10-26T05:59:15;100980.00;;;24.00
44429;BMP180;30134;47.866;-4.222;2022-10-26T06:02:19;101004.00;;;24.00
44429;BMP180;30134;47.866;-4.222;2022-10-26T06:04:50;101001.00;;;24.00
44429;BMP180;30134;47.866;-4.222;2022-10-26T06:07:18;100999.00;;;24.00
44429;BMP180;30134;47.866;-4.222;2022-10-26T06:09:48;100988.00;;;24.00
44429;BMP180;30134;47.866;-4.222;2022-10-26T06:12:15;100991.00;;;24.00
44429;BMP180;30134;47.866;-4.222;2022-10-26T06:14:42;100985.00;;;24.00
44429;BMP180;30134;47.866;-4.222;2022-10-26T06:32:09;101010.00;;;24.00
44429;BMP180;30134;47.866;-4.222;2022-10-26T06:34:41;101020.00;;;24.00
44429;BMP180;30134;47.866;-4.222;2022-10-26T06:37:07;101024.00;;;24.00
44429;BMP180;30134;47.866;-4.222;2022-10-26T06:39:43;101015.00;;;24.00
44429;BMP180;30134;47.866;-4.222;2022-10-26T06:42:11;101024.00;;;24.00
44429;BMP180;30134;47.866;-4.222;2022-10-26T06:44:38;101019.00;;;24.00
44429;BMP180;30134;47.866;-4.222;2022-10-26T06:47:20;101024.00;;;24.00
44429;BMP180;30134;47.866;-4.222;2022-10-26T06:52:40;101040.00;;;23.90
44429;BMP180;30134;47.866;-4.222;2022-10-26T06:55:13;101044.00;;;23.90
44429;BMP180;30134;47.866;-4.222;2022-10-26T06:57:41;101045.00;;;23.90
44429;BMP180;30134;47.866;-4.222;2022-10-26T07:00:22;101052.00;;;23.90
44429;BMP180;30134;47.866;-4.222;2022-10-26T07:02:50;101053.00;;;23.90
44429;BMP180;30134;47.866;-4.222;2022-10-26T07:05:16;101054.00;;;23.90
44429;BMP180;30134;47.866;-4.222;2022-10-26T07:07:45;101053.00;;;23.90
44429;BMP180;30134;47.866;-4.222;2022-10-26T07:10:13;101059.00;;;23.90
44429;BMP180;30134;47.866;-4.222;2022-10-26T07:12:39;101060.00;;;23.90
44429;BMP180;30134;47.866;-4.222;2022-10-26T07:15:06;101059.00;;;23.90
44429;BMP180;30134;47.866;-4.222;2022-10-26T07:17:46;101063.00;;;23.90
44429;BMP180;30134;47.866;-4.222;2022-10-26T07:20:15;101068.00;;;23.90
44429;BMP180;30134;47.866;-4.222;2022-10-26T07:22:41;101072.00;;;23.90
44429;BMP180;30134;47.866;-4.222;2022-10-26T07:25:08;101080.00;;;23.90
44429;BMP180;30134;47.866;-4.222;2022-10-26T07:27:34;101076.00;;;23.90
44429;BMP180;30134;47.866;-4.222;2022-10-26T07:30:01;101077.00;;;23.90
44429;BMP180;30134;47.866;-4.222;2022-10-26T07:32:27;101083.00;;;23.90
44429;BMP180;30134;47.866;-4.222;2022-10-26T07:34:53;101090.00;;;23.90
44429;BMP180;30134;47.866;-4.222;2022-10-26T07:37:18;101100.00;;;23.90
44429;BMP180;30134;47.866;-4.222;2022-10-26T07:39:44;101095.00;;;23.90
44429;BMP180;30134;47.866;-4.222;2022-10-26T07:42:10;101106.00;;;23.90
44429;BMP180;30134;47.866;-4.222;2022-10-26T07:44:38;101114.00;;;23.90
44429;BMP180;30134;47.866;-4.222;2022-10-26T07:47:04;101115.00;;;23.90
44429;BMP180;30134;47.866;-4.222;2022-10-26T07:49:29;101127.00;;;23.90
44429;BMP180;30134;47.866;-4.222;2022-10-26T07:51:55;101130.00;;;23.90
44429;BMP180;30134;47.866;-4.222;2022-10-26T07:54:21;101139.00;;;23.90
44429;BMP180;30134;47.866;-4.222;2022-10-26T07:56:50;101134.00;;;23.90
44429;BMP180;30134;47.866;-4.222;2022-10-26T07:59:16;101133.00;;;23.90
44429;BMP180;30134;47.866;-4.222;2022-10-26T08:01:43;101142.00;;;23.90
44429;BMP180;30134;47.866;-4.222;2022-10-26T08:04:09;101146.00;;;23.90
44429;BMP180;30134;47.866;-4.222;2022-10-26T08:06:35;101154.00;;;23.90
44429;BMP180;30134;47.866;-4.222;2022-10-26T08:09:01;101153.00;;;23.90
44429;BMP180;30134;47.866;-4.222;2022-10-26T08:11:27;101158.00;;;23.90
44429;BMP180;30134;47.866;-4.222;2022-10-26T08:13:54;101163.00;;;23.90
44429;BMP180;30134;47.866;-4.222;2022-10-26T08:16:21;101164.00;;;23.90
44429;BMP180;30134;47.866;-4.222;2022-10-26T08:18:49;101156.00;;;23.90
44429;BMP180;30134;47.866;-4.222;2022-10-26T08:21:15;101164.00;;;23.90
44429;BMP180;30134;47.866;-4.222;2022-10-26T08:23:42;101170.00;;;23.90
44429;BMP180;30134;47.866;-4.222;2022-10-26T08:26:09;101170.00;;;23.90
44429;BMP180;30134;47.866;-4.222;2022-10-26T08:28:38;101182.00;;;23.90
44429;BMP180;30134;47.866;-4.222;2022-10-26T08:31:05;101182.00;;;23.90
44429;BMP180;30134;47.866;-4.222;2022-10-26T08:33:32;101187.00;;;23.90
44429;BMP180;30134;47.866;-4.222;2022-10-26T08:36:03;101200.00;;;23.90
44429;BMP180;30134;47.866;-4.222;2022-10-26T08:38:29;101204.00;;;23.90
44429;BMP180;30134;47.866;-4.222;2022-10-26T08:40:56;101198.00;;;23.90
44429;BMP180;30134;47.866;-4.222;2022-10-26T08:43:48;101206.00;;;23.90
44429;BMP180;30134;47.866;-4.222;2022-10-26T08:46:26;101202.00;;;23.90
44429;BMP180;30134;47.866;-4.222;2022-10-26T08:49:21;101207.00;;;23.90
44429;BMP180;30134;47.866;-4.222;2022-10-26T08:51:47;101209.00;;;23.90
44429;BMP180;30134;47.866;-4.222;2022-10-26T08:54:37;101214.00;;;23.90
44429;BMP180;30134;47.866;-4.222;2022-10-26T08:57:26;101217.00;;;23.90
44429;BMP180;30134;47.866;-4.222;2022-10-26T09:00:10;101226.00;;;23.90
44429;BMP180;30134;47.866;-4.222;2022-10-26T09:02:36;101226.00;;;23.90
44429;BMP180;30134;47.866;-4.222;2022-10-26T09:05:03;101236.00;;;23.90
44429;BMP180;30134;47.866;-4.222;2022-10-26T09:07:51;101251.00;;;23.90
44429;BMP180;30134;47.866;-4.222;2022-10-26T09:10:52;101258.00;;;23.90
44429;BMP180;30134;47.866;-4.222;2022-10-26T09:22:10;101266.00;;;23.90
44429;BMP180;30134;47.866;-4.222;2022-10-26T09:24:55;101272.00;;;23.90
44429;BMP180;30134;47.866;-4.222;2022-10-26T09:29:59;101273.00;;;23.90
44429;BMP180;30134;47.866;-4.222;2022-10-26T09:32:40;101273.00;;;23.90
44429;BMP180;30134;47.866;-4.222;2022-10-26T09:46:31;101291.00;;;23.90
44429;BMP180;30134;47.866;-4.222;2022-10-26T09:49:09;101288.00;;;23.90
44429;BMP180;30134;47.866;-4.222;2022-10-26T09:51:39;101289.00;;;23.90
44429;BMP180;30134;47.866;-4.222;2022-10-26T09:54:15;101292.00;;;23.90
44429;BMP180;30134;47.866;-4.222;2022-10-26T09:56:46;101303.00;;;23.90
44429;BMP180;30134;47.866;-4.222;2022-10-26T09:59:13;101298.00;;;23.90
44429;BMP180;30134;47.866;-4.222;2022-10-26T10:01:40;101303.00;;;23.90
44429;BMP180;30134;47.866;-4.222;2022-10-26T10:06:39;101306.00;;;23.90
44429;BMP180;30134;47.866;-4.222;2022-10-26T10:09:21;101319.00;;;23.90
44429;BMP180;30134;47.866;-4.222;2022-10-26T10:11:56;101317.00;;;23.90
44429;BMP180;30134;47.866;-4.222;2022-10-26T10:14:28;101314.00;;;23.90
44429;BMP180;30134;47.866;-4.222;2022-10-26T10:17:00;101324.00;;;23.90
44429;BMP180;30134;47.866;-4.222;2022-10-26T10:19:34;101324.00;;;24.00
44429;BMP180;30134;47.866;-4.222;2022-10-26T10:24:36;101325.00;;;24.10
44429;BMP180;30134;47.866;-4.222;2022-10-26T10:29:45;101328.00;;;24.30
44429;BMP180;30134;47.866;-4.222;2022-10-26T10:32:29;101327.00;;;24.40
44429;BMP180;30134;47.866;-4.222;2022-10-26T10:35:00;101335.00;;;24.40
44429;BMP180;30134;47.866;-4.222;2022-10-26T10:37:40;101340.00;;;24.50
44429;BMP180;30134;47.866;-4.222;2022-10-26T10:40:19;101347.00;;;24.60
44429;BMP180;30134;47.866;-4.222;2022-10-26T10:42:47;101349.00;;;24.60
44429;BMP180;30134;47.866;-4.222;2022-10-26T10:45:27;101357.00;;;24.70
44429;BMP180;30134;47.866;-4.222;2022-10-26T10:50:29;101381.00;;;24.80
44429;BMP180;30134;47.866;-4.222;2022-10-26T10:53:21;101377.00;;;24.80
44429;BMP180;30134;47.866;-4.222;2022-10-26T11:01:48;101378.00;;;25.00
44429;BMP180;30134;47.866;-4.222;2022-10-26T11:07:17;101395.00;;;25.00
44429;BMP180;30134;47.866;-4.222;2022-10-26T11:09:46;101391.00;;;25.10
44429;BMP180;30134;47.866;-4.222;2022-10-26T11:12:18;101399.00;;;25.10
44429;BMP180;30134;47.866;-4.222;2022-10-26T11:14:56;101396.00;;;25.10
44429;BMP180;30134;47.866;-4.222;2022-10-26T11:18:05;101404.00;;;25.20
44429;BMP180;30134;47.866;-4.222;2022-10-26T11:20:41;101402.00;;;25.20
44429;BMP180;30134;47.866;-4.222;2022-10-26T11:23:41;101399.00;;;25.20
44429;BMP180;30134;47.866;-4.222;2022-10-26T11:32:31;101411.00;;;25.30
44429;BMP180;30134;47.866;-4.222;2022-10-26T11:38:07;101415.00;;;25.40
44429;BMP180;30134;47.866;-4.222;2022-10-26T11:40:47;101422.00;;;25.40
44429;BMP180;30134;47.866;-4.222;2022-10-26T11:43:21;101419.00;;;25.40
44429;BMP180;30134;47.866;-4.222;2022-10-26T11:46:23;101417.00;;;25.50
44429;BMP180;30134;47.866;-4.222;2022-10-26T11:55:00;101406.00;;;25.50
44429;BMP180;30134;47.866;-4.222;2022-10-26T11:57:31;101419.00;;;25.60
44429;BMP180;30134;47.866;-4.222;2022-10-26T12:00:05;101429.00;;;25.60
44429;BMP180;30134;47.866;-4.222;2022-10-26T12:02:39;101427.00;;;25.60
44429;BMP180;30134;47.866;-4.222;2022-10-26T12:05:22;101421.00;;;25.60
44429;BMP180;30134;47.866;-4.222;2022-10-26T12:07:56;101418.00;;;25.60
44429;BMP180;30134;47.866;-4.222;2022-10-26T12:10:34;101413.00;;;25.70
44429;BMP180;30134;47.866;-4.222;2022-10-26T12:13:34;101421.00;;;25.70
44429;BMP180;30134;47.866;-4.222;2022-10-26T12:18:51;101419.00;;;25.70
44429;BMP180;30134;47.866;-4.222;2022-10-26T12:21:19;101431.00;;;25.70
44429;BMP180;30134;47.866;-4.222;2022-10-26T12:24:27;101435.00;;;25.70
44429;BMP180;30134;47.866;-4.222;2022-10-26T12:26:57;101434.00;;;25.80
44429;BMP180;30134;47.866;-4.222;2022-10-26T12:31:58;101432.00;;;25.80
44429;BMP180;30134;47.866;-4.222;2022-10-26T12:39:38;101427.00;;;25.90
44429;BMP180;30134;47.866;-4.222;2022-10-26T12:44:35;101427.00;;;25.90
44429;BMP180;30134;47.866;-4.222;2022-10-26T12:47:01;101432.00;;;25.90
44429;BMP180;30134;47.866;-4.222;2022-10-26T13:04:17;101427.00;;;25.90
44429;BMP180;30134;47.866;-4.222;2022-10-26T13:12:22;101414.00;;;26.00
44429;BMP180;30134;47.866;-4.222;2022-10-26T13:15:05;101411.00;;;26.00
44429;BMP180;30134;47.866;-4.222;2022-10-26T13:18:39;101427.00;;;26.10
44429;BMP180;30134;47.866;-4.222;2022-10-26T13:21:11;101415.00;;;26.10
44429;BMP180;30134;47.866;-4.222;2022-10-26T13:24:00;101418.00;;;26.20
44429;BMP180;30134;47.866;-4.222;2022-10-26T13:26:29;101423.00;;;26.20
44429;BMP180;30134;47.866;-4.222;2022-10-26T13:34:14;101428.00;;;26.30
44429;BMP180;30134;47.866;-4.222;2022-10-26T13:37:18;101430.00;;;26.30
44429;BMP180;30134;47.866;-4.222;2022-10-26T13:39:48;101421.00;;;26.40
44429;BMP180;30134;47.866;-4.222;2022-10-26T13:42:24;101420.00;;;26.40
44429;BMP180;30134;47.866;-4.222;2022-10-26T13:45:14;101422.00;;;26.50
44429;BMP180;30134;47.866;-4.222;2022-10-26T13:47:54;101414.00;;;26.50
44429;BMP180;30134;47.866;-4.222;2022-10-26T13:50:27;101410.00;;;26.50
44429;BMP180;30134;47.866;-4.222;2022-10-26T13:52:57;101420.00;;;26.50
44429;BMP180;30134;47.866;-4.222;2022-10-26T13:55:42;101433.00;;;26.50
44429;BMP180;30134;47.866;-4.222;2022-10-26T13:58:29;101443.00;;;26.50
44429;BMP180;30134;47.866;-4.222;2022-10-26T14:01:17;101420.00;;;26.60
44429;BMP180;30134;47.866;-4.222;2022-10-26T14:03:46;101420.00;;;26.60
44429;BMP180;30134;47.866;-4.222;2022-10-26T14:08:50;101417.00;;;26.60
44429;BMP180;30134;47.866;-4.222;2022-10-26T14:11:30;101422.00;;;26.60
44429;BMP180;30134;47.866;-4.222;2022-10-26T14:13:57;101428.00;;;26.70
44429;BMP180;30134;47.866;-4.222;2022-10-26T14:16:28;101424.00;;;26.70
44429;BMP180;30134;47.866;-4.222;2022-10-26T14:18:54;101424.00;;;26.70
44429;BMP180;30134;47.866;-4.222;2022-10-26T14:21:21;101423.00;;;26.70
44429;BMP180;30134;47.866;-4.222;2022-10-26T14:23:59;101416.00;;;26.70
44429;BMP180;30134;47.866;-4.222;2022-10-26T14:26:40;101422.00;;;26.70
44429;BMP180;30134;47.866;-4.222;2022-10-26T14:29:22;101423.00;;;26.70
44429;BMP180;30134;47.866;-4.222;2022-10-26T14:31:49;101438.00;;;26.80
44429;BMP180;30134;47.866;-4.222;2022-10-26T14:34:17;101429.00;;;26.80
44429;BMP180;30134;47.866;-4.222;2022-10-26T14:37:21;101421.00;;;26.80
44429;BMP180;30134;47.866;-4.222;2022-10-26T14:39:44;101414.00;;;26.80
44429;BMP180;30134;47.866;-4.222;2022-10-26T14:42:32;101418.00;;;26.80
44429;BMP180;30134;47.866;-4.222;2022-10-26T14:44:59;101416.00;;;26.90
44429;BMP180;30134;47.866;-4.222;2022-10-26T14:47:31;101414.00;;;26.90
44429;BMP180;30134;47.866;-4.222;2022-10-26T14:49:59;101423.00;;;26.90
44429;BMP180;30134;47.866;-4.222;2022-10-26T14:52:35;101414.00;;;26.90
44429;BMP180;30134;47.866;-4.222;2022-10-26T14:55:13;101422.00;;;26.90
44429;BMP180;30134;47.866;-4.222;2022-10-26T14:57:42;101414.00;;;26.90
44429;BMP180;30134;47.866;-4.222;2022-10-26T15:00:23;101423.00;;;26.90
44429;BMP180;30134;47.866;-4.222;2022-10-26T15:02:52;101413.00;;;26.90
44429;BMP180;30134;47.866;-4.222;2022-10-26T15:05:27;101421.00;;;27.00
44429;BMP180;30134;47.866;-4.222;2022-10-26T15:07:59;101419.00;;;27.00
44429;BMP180;30134;47.866;-4.222;2022-10-26T15:15:35;101404.00;;;27.00
44429;BMP180;30134;47.866;-4.222;2022-10-26T15:18:02;101409.00;;;27.00
44429;BMP180;30134;47.866;-4.222;2022-10-26T15:20:30;101409.00;;;27.10
44429;BMP180;30134;47.866;-4.222;2022-10-26T15:23:01;101413.00;;;27.10
44429;BMP180;30134;47.866;-4.222;2022-10-26T15:25:30;101407.00;;;27.10
44429;BMP180;30134;47.866;-4.222;2022-10-26T15:28:21;101398.00;;;27.10
44429;BMP180;30134;47.866;-4.222;2022-10-26T15:33:25;101404.00;;;27.10
44429;BMP180;30134;47.866;-4.222;2022-10-26T15:36:19;101405.00;;;27.10
44429;BMP180;30134;47.866;-4.222;2022-10-26T15:38:46;101402.00;;;27.10
44429;BMP180;30134;47.866;-4.222;2022-10-26T15:41:24;101405.00;;;27.10
44429;BMP180;30134;47.866;-4.222;2022-10-26T15:43:53;101404.00;;;27.10
44429;BMP180;30134;47.866;-4.222;2022-10-26T15:46:24;101409.00;;;27.10
44429;BMP180;30134;47.866;-4.222;2022-10-26T15:48:56;101410.00;;;27.10
44429;BMP180;30134;47.866;-4.222;2022-10-26T15:51:23;101402.00;;;27.10
44429;BMP180;30134;47.866;-4.222;2022-10-26T15:53:49;101402.00;;;27.10
44429;BMP180;30134;47.866;-4.222;2022-10-26T15:56:18;101394.00;;;27.10
44429;BMP180;30134;47.866;-4.222;2022-10-26T15:58:45;101401.00;;;27.10
44429;BMP180;30134;47.866;-4.222;2022-10-26T16:01:28;101414.00;;;27.10
44429;BMP180;30134;47.866;-4.222;2022-10-26T16:03:54;101396.00;;;27.10
44429;BMP180;30134;47.866;-4.222;2022-10-26T16:06:29;101398.00;;;27.10
44429;BMP180;30134;47.866;-4.222;2022-10-26T16:09:02;101400.00;;;27.10
44429;BMP180;30134;47.866;-4.222;2022-10-26T16:11:29;101402.00;;;27.10
44429;BMP180;30134;47.866;-4.222;2022-10-26T16:13:55;101395.00;;;27.10
44429;BMP180;30134;47.866;-4.222;2022-10-26T16:16:21;101401.00;;;27.10
44429;BMP180;30134;47.866;-4.222;2022-10-26T16:18:51;101376.00;;;27.10
44429;BMP180;30134;47.866;-4.222;2022-10-26T16:21:22;101381.00;;;27.10
44429;BMP180;30134;47.866;-4.222;2022-10-26T16:23:54;101404.00;;;27.10
44429;BMP180;30134;47.866;-4.222;2022-10-26T16:26:21;101408.00;;;27.10
44429;BMP180;30134;47.866;-4.222;2022-10-26T16:28:48;101417.00;;;27.10
44429;BMP180;30134;47.866;-4.222;2022-10-26T16:31:17;101414.00;;;27.10
44429;BMP180;30134;47.866;-4.222;2022-10-26T16:33:43;101420.00;;;27.10
44429;BMP180;30134;47.866;-4.222;2022-10-26T16:36:11;101419.00;;;27.10
44429;BMP180;30134;47.866;-4.222;2022-10-26T16:38:38;101419.00;;;27.10
44429;BMP180;30134;47.866;-4.222;2022-10-26T16:41:13;101427.00;;;27.10
44429;BMP180;30134;47.866;-4.222;2022-10-26T16:43:43;101432.00;;;27.10